createdAt,value
2022-08-17T00:01:20.110Z,8.38
2022-08-17T00:06:49.088Z,8.05
2022-08-17T00:12:41.358Z,8.27
2022-08-17T00:17:54.356Z,8.27
2022-08-17T00:23:17.343Z,8.02
2022-08-17T00:28:40.854Z,8.70
2022-08-17T00:34:04.907Z,7.95
2022-08-17T00:39:27.180Z,8.52
2022-08-17T00:44:50.014Z,8.73
2022-08-17T00:50:15.457Z,8.57
2022-08-17T00:55:38.152Z,8.75
2022-08-17T01:01:04.074Z,8.25
2022-08-17T01:06:27.224Z,9.15
2022-08-17T01:11:52.211Z,8.95
2022-08-17T01:17:14.782Z,8.70
2022-08-17T01:22:37.676Z,8.25
2022-08-17T01:28:00.681Z,8.23
2022-08-17T01:33:23.380Z,8.68
2022-08-17T01:38:45.525Z,9.20
2022-08-17T01:44:08.557Z,9.85
2022-08-17T01:49:30.952Z,8.80
2022-08-17T01:54:55.456Z,8.90
2022-08-17T02:00:18.386Z,9.32
2022-08-17T02:05:40.966Z,8.98
2022-08-17T02:11:06.186Z,9.20
2022-08-17T02:16:38.215Z,8.82
2022-08-17T02:22:00.638Z,8.60
2022-08-17T02:27:23.190Z,9.50
2022-08-17T02:32:45.865Z,8.75
2022-08-17T02:38:08.281Z,8.80
2022-08-17T02:43:30.573Z,9.45
2022-08-17T02:48:52.756Z,8.45
2022-08-17T02:54:40.395Z,8.75
2022-08-17T02:59:57.829Z,9.55
2022-08-17T03:05:22.157Z,9.23
2022-08-17T03:10:46.104Z,9.13
2022-08-17T03:16:09.231Z,8.93
2022-08-17T03:21:31.751Z,9.80
2022-08-17T03:26:54.263Z,9.25
2022-08-17T03:32:17.103Z,9.43
2022-08-17T03:37:39.336Z,9.75
2022-08-17T03:43:07.316Z,9.68
2022-08-17T03:48:47.963Z,9.23
2022-08-17T03:54:49.695Z,9.40
2022-08-17T04:00:12.466Z,10.20
2022-08-17T04:05:35.072Z,9.88
2022-08-17T04:10:58.361Z,9.70
2022-08-17T04:16:20.949Z,9.90
2022-08-17T04:21:43.415Z,9.65
2022-08-17T04:27:05.950Z,9.60
2022-08-17T04:33:03.471Z,9.75
2022-08-17T04:38:14.273Z,9.98
2022-08-17T04:43:39.342Z,9.63
2022-08-17T04:49:07.913Z,10.00
2022-08-17T04:54:30.759Z,9.73
2022-08-17T04:59:53.810Z,9.88
2022-08-17T05:05:37.339Z,9.63
2022-08-17T05:11:00.437Z,10.05
2022-08-17T05:16:24.473Z,9.32
2022-08-17T05:21:47.282Z,9.93
2022-08-17T05:27:10.111Z,9.48
2022-08-17T05:32:58.459Z,9.40
2022-08-17T05:38:23.075Z,8.68
2022-08-17T05:43:45.736Z,10.05
2022-08-17T05:49:08.981Z,10.50
2022-08-17T05:55:03.984Z,9.15
2022-08-17T06:01:00.043Z,9.23
2022-08-17T06:06:31.749Z,8.43
2022-08-17T06:12:06.842Z,8.43
2022-08-17T06:17:37.795Z,9.00
2022-08-17T06:23:08.375Z,8.95
2022-08-17T06:28:38.979Z,9.43
2022-08-17T06:34:04.080Z,8.70
2022-08-17T06:40:04.245Z,9.00
2022-08-17T06:45:43.457Z,8.65
2022-08-17T06:51:19.206Z,9.32
2022-08-17T06:57:10.124Z,9.63
2022-08-17T07:03:03.136Z,9.95
2022-08-17T07:08:59.411Z,10.43
2022-08-17T07:14:39.696Z,10.27
2022-08-17T07:20:08.712Z,9.02
2022-08-17T07:25:33.227Z,8.80
2022-08-17T07:30:55.602Z,8.88
2022-08-17T07:36:30.245Z,8.25
2022-08-17T07:42:02.857Z,8.07
2022-08-17T07:47:44.157Z,7.80
2022-08-17T07:53:27.153Z,6.57
2022-08-17T07:59:07.759Z,6.63
2022-08-17T08:04:58.846Z,6.43
2022-08-17T08:10:29.948Z,5.60
2022-08-17T08:16:11.867Z,5.40
2022-08-17T08:21:47.667Z,5.35
2022-08-17T08:27:54.623Z,4.82
2022-08-17T08:33:57.308Z,3.88
2022-08-17T08:39:29.006Z,3.97
2022-08-17T08:45:13.756Z,4.43
2022-08-17T08:50:43.067Z,4.00
2022-08-17T08:56:12.755Z,4.30
2022-08-17T09:02:03.759Z,3.80
2022-08-17T09:07:56.297Z,3.90
2022-08-17T09:13:54.379Z,3.85
2022-08-17T09:19:30.657Z,4.05
2022-08-17T09:25:08.638Z,3.50
2022-08-17T09:30:44.164Z,4.05
2022-08-17T09:36:18.993Z,4.30
2022-08-17T09:41:59.684Z,4.20
2022-08-17T09:47:34.775Z,3.92
2022-08-17T09:52:59.708Z,4.57
2022-08-17T09:58:47.722Z,3.75
2022-08-17T10:04:29.937Z,3.80
2022-08-17T10:09:58.780Z,4.07
2022-08-17T10:15:26.370Z,3.30
2022-08-17T10:21:25.698Z,4.03
2022-08-17T10:26:57.029Z,3.40
2022-08-17T10:32:33.252Z,3.10
2022-08-17T10:38:32.941Z,3.42
2022-08-17T10:44:40.392Z,3.75
2022-08-17T10:49:57.701Z,3.70
2022-08-17T10:55:20.732Z,4.38
2022-08-17T11:00:43.477Z,3.45
2022-08-17T11:06:49.601Z,3.65
2022-08-17T11:12:24.581Z,3.90
2022-08-17T11:17:52.616Z,3.67
2022-08-17T11:23:15.033Z,3.70
2022-08-17T11:28:52.764Z,3.30
2022-08-17T11:34:26.677Z,3.45
2022-08-17T11:40:26.336Z,3.40
2022-08-17T11:46:06.918Z,3.53
2022-08-17T11:52:01.206Z,3.45
2022-08-17T11:57:26.878Z,3.20
2022-08-17T12:03:24.934Z,3.58
2022-08-17T12:09:00.531Z,3.20
2022-08-17T12:14:45.460Z,3.30
2022-08-17T12:20:24.888Z,3.15
2022-08-17T12:25:59.489Z,3.35
2022-08-17T12:31:27.369Z,3.70
2022-08-17T12:36:52.415Z,3.50
2022-08-17T12:42:31.261Z,3.60
2022-08-17T12:48:11.172Z,3.63
2022-08-17T12:53:37.230Z,3.55
2022-08-17T12:59:02.393Z,3.30
2022-08-17T13:04:26.498Z,3.70
2022-08-17T13:09:52.097Z,3.58
2022-08-17T13:15:21.803Z,3.70
2022-08-17T13:20:53.747Z,3.72
2022-08-17T13:26:16.640Z,3.83
2022-08-17T13:31:52.297Z,3.60
2022-08-17T13:37:29.129Z,3.78
2022-08-17T13:42:54.313Z,4.10
2022-08-17T13:48:16.956Z,3.90
2022-08-17T13:53:40.217Z,3.80
2022-08-17T13:59:12.826Z,3.90
2022-08-17T14:04:36.357Z,4.30
2022-08-17T14:10:02.721Z,3.97
2022-08-17T14:15:55.870Z,3.67
2022-08-17T14:21:10.074Z,4.40
2022-08-17T14:26:33.436Z,3.70
2022-08-17T14:31:57.455Z,3.88
2022-08-17T14:37:21.444Z,4.05
2022-08-17T14:42:45.917Z,4.38
2022-08-17T14:48:09.131Z,4.25
2022-08-17T14:53:32.778Z,3.83
2022-08-17T14:58:56.049Z,3.80
2022-08-17T15:04:18.775Z,3.90
2022-08-17T15:09:41.775Z,3.70
2022-08-17T15:15:06.420Z,4.00
2022-08-17T15:20:30.106Z,3.63
2022-08-17T15:25:54.396Z,3.60
2022-08-17T15:31:18.271Z,4.05
2022-08-17T15:36:54.651Z,3.90
2022-08-17T15:42:18.126Z,3.83
2022-08-17T15:47:40.819Z,4.10
2022-08-17T15:53:04.843Z,4.03
2022-08-17T15:58:29.966Z,3.60
2022-08-17T16:04:04.559Z,4.05
2022-08-17T16:09:29.366Z,3.70
2022-08-17T16:14:54.376Z,3.72
2022-08-17T16:20:19.540Z,4.60
2022-08-17T16:25:52.967Z,3.53
2022-08-17T16:31:16.952Z,3.63
2022-08-17T16:36:39.581Z,4.07
2022-08-17T16:42:02.977Z,4.68
2022-08-17T16:47:25.735Z,3.80
2022-08-17T16:52:48.990Z,3.58
2022-08-17T16:58:12.063Z,4.28
2022-08-17T17:03:40.564Z,3.78
2022-08-17T17:09:08.018Z,3.90
2022-08-17T17:14:37.113Z,4.78
2022-08-17T17:20:09.900Z,4.10
2022-08-17T17:26:03.524Z,4.00
2022-08-17T17:31:33.846Z,4.75
2022-08-17T17:37:01.167Z,4.30
2022-08-17T17:42:28.981Z,4.50
2022-08-17T17:47:52.811Z,4.15
2022-08-17T17:53:59.416Z,5.05
2022-08-17T17:59:43.872Z,5.22
2022-08-17T18:05:18.101Z,4.80
2022-08-17T18:11:14.639Z,4.93
2022-08-17T18:16:50.528Z,5.40
2022-08-17T18:22:24.531Z,5.70
2022-08-17T18:27:51.890Z,5.78
2022-08-17T18:33:22.975Z,5.50
2022-08-17T18:38:45.857Z,4.95
2022-08-17T18:44:23.563Z,5.57
2022-08-17T18:49:58.309Z,5.88
2022-08-17T18:55:28.781Z,6.72
2022-08-17T19:00:51.761Z,5.38
2022-08-17T19:06:35.036Z,5.93
2022-08-17T19:11:58.407Z,6.60
2022-08-17T19:17:48.612Z,6.18
2022-08-17T19:23:38.099Z,6.07
2022-08-17T19:29:13.370Z,5.75
2022-08-17T19:34:38.448Z,6.47
2022-08-17T19:40:51.180Z,5.72
2022-08-17T19:46:35.710Z,6.75
2022-08-17T19:52:19.436Z,6.43
2022-08-17T19:58:04.939Z,5.93
2022-08-17T20:03:38.534Z,6.07
2022-08-17T20:09:16.505Z,6.78
2022-08-17T20:14:53.740Z,6.20
2022-08-17T20:20:30.912Z,6.03
2022-08-17T20:26:23.815Z,6.43
2022-08-17T20:31:55.410Z,6.25
2022-08-17T20:37:17.724Z,6.50
2022-08-17T20:42:40.163Z,6.28
2022-08-17T20:48:36.989Z,6.55
2022-08-17T20:53:54.487Z,6.80
2022-08-17T20:59:25.988Z,6.70
2022-08-17T21:04:52.783Z,6.43
2022-08-17T21:10:19.556Z,6.20
2022-08-17T21:15:42.008Z,6.68
2022-08-17T21:21:32.844Z,6.57
2022-08-17T21:27:26.286Z,5.80
2022-08-17T21:33:18.614Z,6.55
2022-08-17T21:38:58.419Z,6.43
2022-08-17T21:44:37.066Z,6.40
2022-08-17T21:50:19.887Z,6.60
2022-08-17T21:55:42.109Z,6.97
2022-08-17T22:01:21.814Z,6.22
2022-08-17T22:06:52.254Z,6.47
2022-08-17T22:12:22.005Z,6.40
2022-08-17T22:17:46.848Z,6.68
2022-08-17T22:23:32.536Z,7.38
2022-08-17T22:28:59.108Z,7.03
2022-08-17T22:34:21.734Z,6.70
2022-08-17T22:39:44.823Z,6.97
2022-08-17T22:45:08.422Z,7.10
2022-08-17T22:50:33.147Z,7.03
2022-08-17T22:56:15.320Z,7.38
2022-08-17T23:01:39.220Z,6.90
2022-08-17T23:07:02.179Z,7.07
2022-08-17T23:12:26.779Z,7.15
2022-08-17T23:17:49.242Z,7.82
2022-08-17T23:23:15.167Z,7.53
2022-08-17T23:28:38.117Z,7.30
2022-08-17T23:34:03.093Z,7.35
2022-08-17T23:39:27.599Z,7.57
2022-08-17T23:44:50.924Z,7.43
2022-08-17T23:50:15.386Z,7.60
2022-08-17T23:55:39.308Z,7.65
